Time;durP1;ratioP1;P1;durP2;ratioP2;P2;SDS_P1;SDS_P2;PMS_P1;PMS_P2;Temp;Humidity;BMP_temperature;BMP_pressure;BME280_temperature;BME280_humidity;BME280_pressure;Samples;Min_cycle;Max_cycle;Signal;HPM_P1;HPM_P2
2021/11/01 00:01:54;;;;;;;4.22;2.42;;;;;;;14.36;93.13;99608.25;5004136;28;20040;-83
2021/11/01 00:04:19;;;;;;;4.68;2.55;;;;;;;14.36;92.72;99607.47;5037344;28;20036;-81
2021/11/01 00:06:45;;;;;;;2.40;2.20;;;;;;;14.33;93.59;99611.28;5021863;28;20048;-81
2021/11/01 00:09:10;;;;;;;3.15;2.40;;;;;;;14.31;93.58;99605.41;5022296;28;20099;-81
2021/11/01 00:11:36;;;;;;;3.35;2.35;;;;;;;14.31;93.17;99615.94;5010356;28;20040;-82
2021/11/01 00:14:02;;;;;;;4.38;2.30;;;;;;;14.32;93.40;99628.13;5024849;28;20511;-81
2021/11/01 00:16:29;;;;;;;4.20;2.30;;;;;;;14.34;93.33;99628.75;5034914;28;20045;-81
2021/11/01 00:18:55;;;;;;;2.78;2.00;;;;;;;14.44;92.58;99638.13;5021478;28;20036;-82
2021/11/01 00:21:21;;;;;;;3.90;2.65;;;;;;;14.41;92.36;99631.44;5034341;28;20029;-83
2021/11/01 00:23:47;;;;;;;3.90;2.40;;;;;;;14.46;92.85;99634.25;5048714;28;20056;-82
2021/11/01 00:26:13;;;;;;;2.63;2.38;;;;;;;14.34;93.35;99627.94;5037966;28;20041;-81
2021/11/01 00:28:39;;;;;;;3.25;2.45;;;;;;;14.40;92.98;99637.69;5030855;28;20028;-81
2021/11/01 00:31:05;;;;;;;2.15;1.92;;;;;;;14.52;92.53;99640.56;5006446;28;20035;-81
2021/11/01 00:33:30;;;;;;;3.97;1.80;;;;;;;14.41;93.30;99624.31;5039248;28;20037;-82
2021/11/01 00:35:56;;;;;;;6.63;1.95;;;;;;;14.46;93.91;99639.53;5021257;28;20059;-81
2021/11/01 00:38:22;;;;;;;4.05;1.88;;;;;;;14.50;93.71;99637.31;5041596;28;20508;-82
2021/11/01 00:40:49;;;;;;;5.65;1.90;;;;;;;14.31;97.03;99634.41;5022526;28;20037;-81
2021/11/01 00:43:15;;;;;;;2.15;1.90;;;;;;;14.23;97.12;99628.53;5029838;28;20434;-82
2021/11/01 00:45:41;;;;;;;1.20;1.10;;;;;;;14.21;96.92;99626.88;5036326;28;20185;-82
2021/11/01 00:48:07;;;;;;;1.33;1.10;;;;;;;14.21;96.75;99626.88;5017583;28;20514;-81
2021/11/01 00:50:34;;;;;;;1.98;1.20;;;;;;;14.14;98.69;99633.13;5020471;28;20029;-82
2021/11/01 00:53:00;;;;;;;3.65;1.20;;;;;;;14.11;99.62;99631.72;5028987;28;20521;-81
2021/11/01 00:55:35;;;;;;;7.28;1.35;;;;;;;14.04;100.00;99636.16;5004454;28;20047;-81
2021/11/01 00:58:03;;;;;;;10.55;1.25;;;;;;;13.93;100.00;99637.50;5006426;28;20036;-82
2021/11/01 01:00:29;;;;;;;5.13;1.10;;;;;;;13.78;100.00;99628.91;5032979;28;20037;-80
2021/11/01 01:02:56;;;;;;;1.70;0.90;;;;;;;13.79;100.00;99628.72;5039752;28;20583;-81
2021/11/01 01:05:22;;;;;;;2.35;1.27;;;;;;;13.81;100.00;99634.63;5015559;28;20032;-80
2021/11/01 01:07:47;;;;;;;3.50;1.25;;;;;;;13.82;100.00;99644.16;5034584;28;20087;-81
2021/11/01 01:10:13;;;;;;;3.33;1.20;;;;;;;13.79;100.00;99651.66;5051393;28;20075;-80
2021/11/01 01:12:42;;;;;;;6.60;1.33;;;;;;;13.62;100.00;99651.94;5020029;28;20115;-80
2021/11/01 01:15:18;;;;;;;7.25;1.23;;;;;;;13.49;100.00;99643.94;5034245;28;20291;-81
2021/11/01 01:17:45;;;;;;;3.38;1.30;;;;;;;13.37;100.00;99642.84;5034469;28;20508;-80
2021/11/01 01:20:13;;;;;;;10.50;1.40;;;;;;;13.27;100.00;99650.25;5036024;28;20063;-80
2021/11/01 01:22:46;;;;;;;8.05;1.50;;;;;;;13.21;100.00;99655.25;5023724;28;20033;-80
2021/11/01 01:25:26;;;;;;;5.88;1.15;;;;;;;13.16;100.00;99647.09;5022897;28;20032;-80
2021/11/01 01:27:54;;;;;;;6.05;1.38;;;;;;;13.15;100.00;99677.06;5022658;28;20083;-80
2021/11/01 01:30:25;;;;;;;6.07;1.35;;;;;;;13.16;97.93;99685.78;5044622;28;20200;-81
2021/11/01 01:32:51;;;;;;;11.00;1.98;;;;;;;13.11;96.85;99696.06;5019595;28;20040;-81
2021/11/01 01:35:17;;;;;;;9.30;1.58;;;;;;;12.99;96.46;99691.28;5020234;28;20037;-81
2021/11/01 01:37:44;;;;;;;6.03;1.23;;;;;;;12.97;96.78;99689.88;5035017;28;20029;-83
2021/11/01 01:40:12;;;;;;;9.63;1.90;;;;;;;12.88;94.82;99696.25;5024253;28;20167;-84
2021/11/01 01:42:39;;;;;;;11.80;1.90;;;;;;;12.85;93.38;99700.06;5027809;28;20044;-81
2021/11/01 01:45:07;;;;;;;12.75;2.17;;;;;;;12.76;93.41;99695.94;5037735;28;20037;-80
2021/11/01 01:47:33;;;;;;;15.05;2.08;;;;;;;12.71;95.26;99691.22;5019910;28;20065;-78
2021/11/01 01:49:59;;;;;;;15.68;2.33;;;;;;;12.65;93.41;99691.97;5038320;28;20039;-79
2021/11/01 01:52:26;;;;;;;22.70;3.42;;;;;;;12.67;93.86;99689.97;5004039;28;20033;-78
2021/11/01 01:54:52;;;;;;;17.15;3.03;;;;;;;12.54;92.98;99681.91;5026423;28;20033;-82
2021/11/01 01:57:18;;;;;;;13.93;2.10;;;;;;;12.53;93.25;99675.03;5037873;28;20495;-80
2021/11/01 01:59:44;;;;;;;14.20;2.38;;;;;;;12.48;93.02;99677.41;5039431;28;20033;-80
2021/11/01 02:02:10;;;;;;;28.92;2.53;;;;;;;12.33;94.25;99685.31;5019516;28;20044;-82
2021/11/01 02:04:38;;;;;;;10.25;2.35;;;;;;;12.29;96.45;99670.91;5051091;28;20033;-79
2021/11/01 02:07:33;;;;;;;19.48;2.72;;;;;;;12.12;98.42;99675.56;5003810;28;20060;-79
2021/11/01 02:10:09;;;;;;;17.15;2.63;;;;;;;11.95;100.00;99654.72;5025488;28;20047;-79
2021/11/01 02:12:41;;;;;;;14.60;2.47;;;;;;;11.86;100.00;99656.56;5039353;28;20028;-79
2021/11/01 02:15:13;;;;;;;16.35;3.15;;;;;;;11.76;100.00;99658.66;5008351;28;20091;-80
2021/11/01 02:17:40;;;;;;;11.57;2.25;;;;;;;11.67;100.00;99665.81;5040035;28;20057;-80
2021/11/01 02:20:09;;;;;;;18.02;2.85;;;;;;;11.65;100.00;99662.56;5025381;28;20506;-80
2021/11/01 02:22:54;;;;;;;17.80;2.35;;;;;;;11.57;100.00;99665.25;5020572;28;20032;-81
2021/11/01 02:25:20;;;;;;;28.75;2.65;;;;;;;11.41;100.00;99684.59;5003980;28;20100;-79
2021/11/01 02:27:46;;;;;;;21.73;2.60;;;;;;;11.30;100.00;99678.00;5035426;28;20466;-80
2021/11/01 02:30:12;;;;;;;22.75;2.65;;;;;;;11.22;100.00;99659.66;5009418;28;20059;-79
2021/11/01 02:32:42;;;;;;;17.77;2.78;;;;;;;11.13;100.00;99652.84;5036648;28;20033;-80
2021/11/01 02:35:08;;;;;;;17.27;2.20;;;;;;;11.07;100.00;99651.75;5022836;28;20082;-80
2021/11/01 02:37:38;;;;;;;26.05;2.55;;;;;;;10.97;100.00;99653.00;5030957;28;20033;-82
2021/11/01 02:40:05;;;;;;;16.73;2.35;;;;;;;10.88;100.00;99652.22;5019481;28;20096;-80
2021/11/01 02:42:30;;;;;;;14.00;1.92;;;;;;;10.82;100.00;99653.75;5009809;28;20064;-80
2021/11/01 02:45:02;;;;;;;20.60;2.30;;;;;;;10.73;100.00;99643.47;5036076;28;20029;-80
2021/11/01 02:47:30;;;;;;;16.67;2.33;;;;;;;10.73;100.00;99648.72;5044970;28;20029;-79
2021/11/01 02:49:58;;;;;;;20.75;2.38;;;;;;;10.70;100.00;99640.22;5019214;28;20033;-81
2021/11/01 02:52:26;;;;;;;15.20;2.13;;;;;;;10.67;100.00;99645.81;5035687;28;20033;-80
2021/11/01 02:54:52;;;;;;;18.88;2.13;;;;;;;10.69;100.00;99637.78;5013351;28;20028;-80
2021/11/01 02:57:18;;;;;;;15.48;2.25;;;;;;;10.81;100.00;99651.28;5028866;28;20506;-80
2021/11/01 02:59:44;;;;;;;13.85;2.30;;;;;;;10.95;100.00;99654.97;5032648;28;20033;-80
2021/11/01 03:02:10;;;;;;;23.55;3.95;;;;;;;11.07;100.00;99640.44;5023415;28;20082;-79
2021/11/01 03:04:35;;;;;;;19.42;2.30;;;;;;;10.95;100.00;99631.38;5020717;28;20091;-78
2021/11/01 03:07:01;;;;;;;24.13;2.25;;;;;;;10.93;100.00;99646.47;5021255;28;20061;-78
2021/11/01 03:09:36;;;;;;;20.55;2.60;;;;;;;10.90;100.00;99650.25;5010561;28;20549;-78
2021/11/01 03:12:06;;;;;;;14.88;2.72;;;;;;;10.85;100.00;99645.53;5025030;28;20029;-79
2021/11/01 03:14:40;;;;;;;19.20;2.00;;;;;;;10.74;100.00;99639.84;5036313;28;20099;-79
2021/11/01 03:17:09;;;;;;;18.80;2.30;;;;;;;10.76;100.00;99648.41;5042306;28;20399;-79
2021/11/01 03:19:38;;;;;;;13.73;2.50;;;;;;;10.90;100.00;99658.09;5025670;28;20033;-79
2021/11/01 03:22:06;;;;;;;15.25;2.00;;;;;;;10.97;100.00;99658.25;5038157;28;20021;-80
2021/11/01 03:24:34;;;;;;;17.42;2.20;;;;;;;11.06;100.00;99665.06;5037081;28;20037;-80
2021/11/01 03:27:03;;;;;;;17.75;2.60;;;;;;;11.13;100.00;99658.09;5019525;28;20059;-79
2021/11/01 03:29:31;;;;;;;20.33;2.30;;;;;;;11.11;100.00;99657.47;5001708;28;20045;-78
2021/11/01 03:31:59;;;;;;;17.30;2.55;;;;;;;11.02;100.00;99661.97;5020313;28;20029;-78
2021/11/01 03:34:26;;;;;;;18.95;2.10;;;;;;;10.86;100.00;99662.09;5036498;28;20044;-78
2021/11/01 03:36:53;;;;;;;14.65;2.20;;;;;;;10.80;100.00;99668.84;5013274;28;20061;-78
2021/11/01 03:39:19;;;;;;;23.63;2.45;;;;;;;10.82;100.00;99672.09;5050633;28;20097;-80
2021/11/01 03:41:46;;;;;;;12.27;2.17;;;;;;;10.80;100.00;99681.16;5019271;28;20529;-78
2021/11/01 03:44:19;;;;;;;16.83;2.50;;;;;;;10.83;100.00;99694.75;5037107;28;20037;-79
2021/11/01 03:46:54;;;;;;;13.10;1.90;;;;;;;10.80;100.00;99696.88;5036659;28;20025;-79
2021/11/01 03:49:22;;;;;;;18.73;2.35;;;;;;;10.77;100.00;99707.72;5023631;28;20179;-79
2021/11/01 03:52:06;;;;;;;26.27;4.00;;;;;;;10.74;100.00;99693.16;4997488;28;20037;-78
2021/11/01 03:54:32;;;;;;;19.17;3.00;;;;;;;10.84;100.00;99698.97;5041764;28;20044;-78
2021/11/01 03:56:59;;;;;;;21.25;3.95;;;;;;;10.83;100.00;99693.91;5035149;28;20043;-78
2021/11/01 03:59:26;;;;;;;24.05;2.90;;;;;;;10.76;100.00;99683.31;5042682;28;20128;-78
2021/11/01 04:01:52;;;;;;;20.95;2.80;;;;;;;10.75;100.00;99683.47;5051149;28;20029;-79
2021/11/01 04:04:18;;;;;;;16.58;2.88;;;;;;;10.68;100.00;99680.72;5034312;28;20609;-78
2021/11/01 04:06:45;;;;;;;17.13;2.72;;;;;;;10.60;100.00;99686.81;5018466;28;20492;-79
2021/11/01 04:09:15;;;;;;;11.65;2.00;;;;;;;10.67;100.00;99686.97;5028994;28;20032;-78
2021/11/01 04:11:49;;;;;;;23.25;3.15;;;;;;;10.74;100.00;99687.06;5036230;28;20044;-78
2021/11/01 04:14:18;;;;;;;20.80;3.03;;;;;;;10.74;100.00;99692.31;5032822;28;20387;-79
2021/11/01 04:16:47;;;;;;;17.15;2.67;;;;;;;10.75;100.00;99704.44;5047697;28;20479;-79
2021/11/01 04:21:41;;;;;;;17.35;2.47;;;;;;;10.64;100.00;99685.50;5025949;28;20495;-78
2021/11/01 04:24:08;;;;;;;17.00;2.60;;;;;;;10.64;100.00;99695.16;5042714;28;20522;-77
2021/11/01 04:26:33;;;;;;;18.23;2.60;;;;;;;10.70;100.00;99700.53;5035650;28;20091;-78
2021/11/01 04:29:04;;;;;;;16.88;2.80;;;;;;;10.65;100.00;99696.81;5016690;28;20121;-80
2021/11/01 04:31:34;;;;;;;13.68;2.47;;;;;;;10.75;100.00;99709.69;5034166;28;20128;-78
2021/11/01 04:34:07;;;;;;;23.02;2.80;;;;;;;10.76;100.00;99703.47;5022602;28;20796;-78
2021/11/01 04:36:33;;;;;;;22.02;3.25;;;;;;;10.77;100.00;99705.91;5018509;28;20034;-78
2021/11/01 04:39:25;;;;;;;23.42;2.80;;;;;;;10.75;100.00;99707.88;5038313;28;20061;-79
2021/11/01 04:55:17;;;;;;;22.23;2.70;;;;;;;10.69;100.00;99713.81;5020852;28;20517;-79
2021/11/01 04:57:43;;;;;;;19.27;2.47;;;;;;;10.64;100.00;99718.75;5015057;28;20034;-78
2021/11/01 05:00:13;;;;;;;22.10;2.83;;;;;;;10.61;100.00;99719.94;5053203;28;20039;-78
2021/11/01 05:02:44;;;;;;;14.02;2.38;;;;;;;10.60;100.00;99706.97;5019959;28;20047;-79
2021/11/01 05:05:10;;;;;;;24.40;2.67;;;;;;;10.56;100.00;99708.31;5034701;28;20426;-79
2021/11/01 05:07:36;;;;;;;16.38;2.63;;;;;;;10.59;100.00;99708.00;5040141;28;20491;-79
2021/11/01 05:10:07;;;;;;;25.52;2.63;;;;;;;10.56;100.00;99727.50;5044311;28;20057;-79
2021/11/01 05:12:39;;;;;;;17.83;2.80;;;;;;;10.54;100.00;99716.34;5018026;28;20045;-78
2021/11/01 05:17:47;;;;;;;17.67;2.53;;;;;;;10.50;100.00;99734.22;5038644;28;20037;-80
2021/11/01 05:20:24;;;;;;;22.55;2.58;;;;;;;10.50;100.00;99733.41;5040439;28;20572;-80
2021/11/01 05:25:26;;;;;;;19.40;2.67;;;;;;;10.51;100.00;99729.81;5036726;28;20072;-79
2021/11/01 05:30:28;;;;;;;19.23;3.30;;;;;;;10.35;100.00;99735.94;5038400;28;20123;-79
2021/11/01 05:33:04;;;;;;;23.85;3.75;;;;;;;10.37;100.00;99744.44;5046363;28;20025;-78
2021/11/01 05:35:31;;;;;;;16.83;2.97;;;;;;;10.34;100.00;99726.44;5035274;28;20033;-80
2021/11/01 05:37:56;;;;;;;35.58;3.45;;;;;;;10.33;100.00;99736.09;5037053;28;20033;-79
2021/11/01 05:40:22;;;;;;;14.63;2.63;;;;;;;10.33;100.00;99730.84;5059089;28;20090;-79
2021/11/01 05:42:48;;;;;;;18.30;2.95;;;;;;;10.32;100.00;99731.03;5024581;28;20111;-79
2021/11/01 05:45:13;;;;;;;18.67;3.35;;;;;;;10.29;100.00;99741.84;5035560;28;20052;-79
2021/11/01 05:47:41;;;;;;;19.83;3.33;;;;;;;10.28;100.00;99733.16;5029775;28;20037;-79
2021/11/01 05:50:08;;;;;;;22.02;4.00;;;;;;;10.26;100.00;99735.09;5047588;28;20029;-79
2021/11/01 05:52:34;;;;;;;17.52;3.63;;;;;;;10.27;100.00;99744.63;5036503;28;20033;-78
2021/11/01 05:55:17;;;;;;;19.08;3.25;;;;;;;10.26;100.00;99737.72;5029202;28;20037;-78
2021/11/01 06:00:48;;;;;;;18.38;2.80;;;;;;;10.19;100.00;99735.94;5048588;28;20091;-78
2021/11/01 06:03:32;;;;;;;18.08;3.20;;;;;;;10.19;100.00;99742.03;5034442;28;20407;-78
2021/11/01 06:06:15;;;;;;;21.05;3.67;;;;;;;10.20;100.00;99748.88;5029208;28;20049;-80
2021/11/01 06:13:53;;;;;;;19.70;3.40;;;;;;;10.14;100.00;99746.94;5068983;28;20346;-79
2021/11/01 06:16:20;;;;;;;22.42;4.15;;;;;;;10.12;100.00;99760.22;5040081;28;20044;-78
2021/11/01 06:18:47;;;;;;;21.35;3.47;;;;;;;10.10;100.00;99756.94;5017556;28;20033;-78
2021/11/01 06:21:15;;;;;;;15.32;3.17;;;;;;;10.10;100.00;99749.09;5018879;28;20033;-78
2021/11/01 06:23:54;;;;;;;15.38;2.78;;;;;;;10.04;100.00;99755.00;5047284;28;20029;-78
2021/11/01 06:26:21;;;;;;;17.77;3.05;;;;;;;10.09;100.00;99754.47;5010882;28;20041;-78
2021/11/01 06:28:53;;;;;;;17.25;3.40;;;;;;;10.05;100.00;99751.38;5034608;28;20081;-78
2021/11/01 06:31:29;;;;;;;16.03;3.63;;;;;;;10.04;100.00;99762.88;5026274;28;20568;-78
2021/11/01 06:39:49;;;;;;;17.92;3.60;;;;;;;9.94;100.00;99754.34;5028653;28;20041;-81
2021/11/01 06:42:21;;;;;;;22.13;3.75;;;;;;;9.98;100.00;99760.88;5035429;28;20057;-81
2021/11/01 06:53:14;;;;;;;26.92;4.13;;;;;;;9.97;100.00;99766.31;5035605;28;20037;-79
2021/11/01 06:58:30;;;;;;;22.35;4.20;;;;;;;9.95;100.00;99776.97;5035129;28;20033;-79
2021/11/01 07:14:44;;;;;;;29.27;4.63;;;;;;;9.97;100.00;99782.84;5030724;28;20407;-80
2021/11/01 07:17:18;;;;;;;;;;;;;;;9.98;100.00;99799.38;5029705;28;20052;-79
2021/11/01 07:25:37;;;;;;;23.00;3.88;;;;;;;10.07;100.00;99796.56;5053061;28;20074;-81
2021/11/01 08:17:32;;;;;;;14.45;3.10;;;;;;;10.15;100.00;99814.06;5037093;28;20037;-79
2021/11/01 08:26:15;;;;;;;13.68;2.70;;;;;;;10.69;99.15;99826.59;4983538;28;20051;-81
2021/11/01 08:29:00;;;;;;;12.23;2.30;;;;;;;10.72;99.41;99823.66;5040135;28;20175;-81
2021/11/01 08:42:20;;;;;;;13.77;2.25;;;;;;;10.86;97.45;99822.09;5044859;28;20080;-80
2021/11/01 08:45:12;;;;;;;14.05;2.20;;;;;;;10.89;97.65;99824.41;5033009;28;20067;-79
2021/11/01 09:06:45;;;;;;;12.88;2.47;;;;;;;11.06;95.93;99843.50;5036315;28;20049;-81
2021/11/01 09:20:40;;;;;;;14.30;2.00;;;;;;;11.36;92.24;99827.91;5037991;28;20040;-81
2021/11/01 09:35:59;;;;;;;12.45;1.88;;;;;;;11.29;91.88;99839.09;5037759;28;20135;-80
2021/11/01 09:43:28;;;;;;;11.23;1.95;;;;;;;11.25;91.12;99850.94;5037792;28;20056;-81
2021/11/01 09:45:56;;;;;;;13.15;2.22;;;;;;;11.19;91.81;99856.06;5039524;28;20075;-80
2021/11/01 09:48:23;;;;;;;14.95;1.65;;;;;;;11.09;90.94;99864.97;5018406;28;20100;-79
2021/11/01 09:50:50;;;;;;;10.98;1.90;;;;;;;11.04;92.44;99858.59;5031788;28;20037;-81
2021/11/01 09:53:24;;;;;;;11.70;1.67;;;;;;;11.02;92.29;99850.91;5035253;28;20033;-79
2021/11/01 10:01:16;;;;;;;10.05;1.73;;;;;;;11.17;91.30;99861.50;5041623;28;20043;-79
2021/11/01 10:03:45;;;;;;;10.32;2.30;;;;;;;11.25;90.89;99865.88;5019873;28;20044;-79
2021/11/01 10:06:48;;;;;;;8.80;1.98;;;;;;;11.43;90.57;99871.69;5037209;28;20487;-79
2021/11/01 10:09:05;;;;;;;;;;;;;;;11.63;88.39;99869.41;5013691;28;20075;-79
2021/11/01 10:11:38;;;;;;;9.75;1.58;;;;;;;11.73;88.55;99866.56;5033937;28;19913;-80
2021/11/01 10:14:07;;;;;;;12.90;1.55;;;;;;;11.73;89.08;99871.00;5033320;28;20032;-80
2021/11/01 10:19:29;;;;;;;14.60;1.65;;;;;;;11.84;87.57;99878.47;5036410;28;20037;-80
2021/11/01 10:21:59;;;;;;;11.43;1.73;;;;;;;12.03;86.01;99870.13;5033405;28;20029;-80
2021/11/01 10:24:34;;;;;;;11.10;1.60;;;;;;;12.24;85.37;99874.72;5033945;28;20037;-81
2021/11/01 10:27:05;;;;;;;9.57;1.92;;;;;;;12.34;83.37;99861.31;5050346;28;20110;-80
2021/11/01 10:29:32;;;;;;;11.63;1.95;;;;;;;12.27;84.18;99866.47;5033195;28;20038;-80
2021/11/01 10:31:59;;;;;;;15.73;2.13;;;;;;;12.36;84.51;99855.88;4995893;28;20070;-80
2021/11/01 10:34:28;;;;;;;11.43;1.70;;;;;;;12.31;84.18;99845.09;5036606;28;20132;-81
2021/11/01 10:36:57;;;;;;;8.48;1.63;;;;;;;12.22;83.18;99860.09;5032736;28;20502;-80
2021/11/01 10:39:24;;;;;;;12.70;1.83;;;;;;;12.17;84.07;99857.22;5018581;28;20048;-78
2021/11/01 10:44:49;;;;;;;14.43;1.77;;;;;;;12.20;84.48;99851.59;5034119;28;20043;-79
2021/11/01 11:19:56;;;;;;;12.20;2.13;;;;;;;12.54;80.12;99830.03;5027117;28;20381;-79
2021/11/01 11:22:38;;;;;;;6.45;1.42;;;;;;;12.53;81.08;99830.22;5031540;28;20506;-79
2021/11/01 11:28:01;;;;;;;6.90;1.58;;;;;;;12.52;81.87;99828.59;5034502;28;20170;-79
2021/11/01 11:33:34;;;;;;;7.85;1.38;;;;;;;12.82;81.03;99835.47;5051420;28;20072;-78
2021/11/01 11:48:02;;;;;;;7.43;1.45;;;;;;;12.63;80.21;99831.56;5030399;28;20033;-79
2021/11/01 11:50:30;;;;;;;8.27;1.23;;;;;;;12.55;80.67;99830.88;5046846;28;20032;-79
2021/11/01 11:53:07;;;;;;;5.57;1.58;;;;;;;12.49;79.94;99842.94;5003771;28;20041;-80
2021/11/01 11:55:32;;;;;;;7.40;1.08;;;;;;;12.41;80.15;99843.00;5028102;28;20123;-80
2021/11/01 11:58:04;;;;;;;6.45;1.25;;;;;;;12.49;81.45;99834.19;5033430;28;20683;-81
2021/11/01 12:00:33;;;;;;;10.18;1.30;;;;;;;12.53;81.36;99825.78;5028390;28;20048;-81
2021/11/01 12:03:17;;;;;;;10.10;1.40;;;;;;;12.60;81.99;99824.06;5049292;28;20104;-81
2021/11/01 12:05:51;;;;;;;10.38;1.40;;;;;;;12.64;78.60;99816.63;5032116;28;20056;-80
2021/11/01 12:08:34;;;;;;;6.10;1.17;;;;;;;12.60;77.46;99813.53;5034921;28;20024;-81
2021/11/01 12:19:06;;;;;;;7.35;1.40;;;;;;;12.92;74.70;99823.84;5034146;28;20398;-80
2021/11/01 12:21:34;;;;;;;6.38;1.00;;;;;;;13.17;72.91;99819.06;5032743;28;20056;-81
2021/11/01 12:24:00;;;;;;;5.18;0.90;;;;;;;13.31;72.21;99823.50;5038583;28;20029;-80
2021/11/01 12:26:27;;;;;;;6.90;1.73;;;;;;;13.29;72.17;99814.13;5025351;28;20036;-81
2021/11/01 12:29:01;;;;;;;3.70;0.90;;;;;;;13.24;74.43;99823.41;5034444;28;20116;-80
2021/11/01 12:31:28;;;;;;;4.88;1.00;;;;;;;13.08;74.51;99821.00;5029894;28;20051;-80
2021/11/01 12:34:03;;;;;;;6.28;1.20;;;;;;;13.04;74.55;99817.91;5047182;28;20032;-81
2021/11/01 12:36:42;;;;;;;5.20;1.10;;;;;;;12.95;74.76;99823.47;5033516;28;20029;-81
2021/11/01 12:39:29;;;;;;;8.10;1.30;;;;;;;12.90;76.95;99820.56;5033614;28;20037;-81
2021/11/01 12:45:44;;;;;;;11.57;1.45;;;;;;;12.75;78.26;99821.44;5027175;28;20025;-82
2021/11/01 12:58:50;;;;;;;5.75;1.50;;;;;;;12.99;77.48;99830.81;5047709;28;20112;-80
2021/11/01 13:01:17;;;;;;;5.45;1.15;;;;;;;12.96;75.12;99835.63;5038232;28;20112;-80
2021/11/01 13:03:52;;;;;;;5.72;0.98;;;;;;;12.78;76.19;99830.75;5031906;28;20042;-80
2021/11/01 13:06:36;;;;;;;4.57;1.33;;;;;;;12.61;73.52;99836.19;5054360;28;20065;-80
2021/11/01 13:09:09;;;;;;;;;;;;;;;12.77;72.81;99840.47;5036628;28;20024;-80
2021/11/01 13:11:55;;;;;;;7.43;1.15;;;;;;;12.68;73.80;99846.00;5047241;28;19913;-80
2021/11/01 13:19:49;;;;;;;4.57;1.25;;;;;;;13.04;74.23;99846.06;5054855;28;20037;-81
2021/11/01 13:22:29;;;;;;;6.10;1.20;;;;;;;13.49;75.99;99843.34;5052890;28;20037;-80
2021/11/01 13:37:07;;;;;;;6.20;1.58;;;;;;;14.21;68.43;99860.78;5038182;28;20426;-80
2021/11/01 13:39:34;;;;;;;5.72;1.20;;;;;;;13.94;68.20;99859.78;5015745;28;20043;-80
2021/11/01 13:41:59;;;;;;;4.03;1.00;;;;;;;13.52;69.04;99858.75;5038296;28;20060;-80
2021/11/01 13:44:28;;;;;;;6.82;1.10;;;;;;;13.23;70.48;99865.72;5022705;28;20068;-80
2021/11/01 13:47:01;;;;;;;6.22;1.20;;;;;;;13.01;73.28;99868.28;5018268;28;20063;-80
2021/11/01 13:49:30;;;;;;;;;;;;;;;12.83;72.00;99868.69;5053173;28;20029;-80
2021/11/01 13:52:08;;;;;;;7.05;1.00;;;;;;;12.71;72.60;99867.50;5046315;28;20383;-80
2021/11/01 13:54:38;;;;;;;5.97;1.38;;;;;;;12.66;73.88;99880.41;5042839;28;20063;-80
2021/11/01 13:57:06;;;;;;;5.15;1.10;;;;;;;12.58;74.60;99873.41;5028793;28;20032;-81
2021/11/01 13:59:45;;;;;;;6.10;1.35;;;;;;;12.48;74.14;99891.25;5035734;28;20091;-80
2021/11/01 14:36:51;;;;;;;6.30;0.85;;;;;;;11.86;77.54;99884.38;5037437;28;20115;-80
2021/11/01 14:56:40;;;;;;;5.78;1.20;;;;;;;11.40;81.49;99882.53;5050862;28;20035;-79
2021/11/01 14:59:08;;;;;;;7.10;1.20;;;;;;;11.33;80.48;99896.53;5008561;28;20048;-79
2021/11/01 15:07:14;;;;;;;5.53;1.27;;;;;;;11.28;82.05;99897.88;5054698;28;20052;-81
2021/11/01 15:14:57;;;;;;;7.32;1.33;;;;;;;10.99;85.64;99914.22;5032515;28;20045;-79
2021/11/01 15:17:43;;;;;;;4.97;1.10;;;;;;;10.96;84.79;99917.16;5031664;28;20033;-81
2021/11/01 15:28:19;;;;;;;4.68;1.42;;;;;;;10.41;90.77;99921.38;5035015;28;20033;-81
2021/11/01 15:38:51;;;;;;;13.50;4.55;;;;;;;10.31;87.92;99924.19;5035363;28;20087;-80
2021/11/01 16:17:45;;;;;;;4.40;1.52;;;;;;;9.61;91.43;99932.44;5033503;28;20538;-79
2021/11/01 16:19:41;;;;;;;8.23;1.55;;;;;;;9.53;91.05;99929.78;5040244;28;20111;-78
2021/11/01 16:22:12;;;;;;;6.68;1.40;;;;;;;9.50;92.22;99927.50;5028092;28;20124;-78
2021/11/01 16:24:38;;;;;;;5.32;1.50;;;;;;;9.30;94.32;99929.53;5048555;28;20029;-80
2021/11/01 16:27:06;;;;;;;3.83;1.83;;;;;;;9.24;94.19;99936.22;5047705;28;20029;-79
2021/11/01 16:34:53;;;;;;;4.80;1.58;;;;;;;8.96;96.08;99938.22;5053910;28;20033;-80
2021/11/01 16:40:06;;;;;;;7.65;1.63;;;;;;;8.85;97.50;99935.88;5018225;28;20065;-80
2021/11/01 16:42:33;;;;;;;5.53;1.70;;;;;;;8.81;97.54;99937.16;5034389;28;20029;-81
2021/11/01 16:45:08;;;;;;;9.00;1.63;;;;;;;8.79;97.98;99942.53;5037366;28;20124;-82
2021/11/01 16:47:34;;;;;;;5.72;1.70;;;;;;;8.80;97.44;99952.03;5054897;28;20089;-80
2021/11/01 16:50:00;;;;;;;6.90;2.20;;;;;;;8.84;97.56;99942.09;5035357;28;20723;-80
2021/11/01 16:52:26;;;;;;;11.52;2.30;;;;;;;8.92;96.52;99945.56;5040337;28;20545;-81
2021/11/01 16:54:55;;;;;;;9.05;2.28;;;;;;;9.02;95.71;99948.06;5019557;28;20024;-80
2021/11/01 16:57:35;;;;;;;8.63;1.65;;;;;;;9.02;94.45;99949.88;5036027;28;20511;-81
2021/11/01 17:10:51;;;;;;;8.65;2.05;;;;;;;8.96;93.84;99961.75;5052982;28;20120;-81
2021/11/01 17:21:19;;;;;;;7.90;1.63;;;;;;;8.89;93.51;99956.34;5025913;28;20045;-81
2021/11/01 17:24:26;;;;;;;5.47;1.58;;;;;;;8.69;94.76;99949.69;5055599;28;20040;-82
2021/11/01 17:35:47;;;;;;;7.38;1.80;;;;;;;8.32;97.39;99950.69;5038096;28;20044;-79
2021/11/01 17:38:44;;;;;;;5.50;1.67;;;;;;;8.31;97.37;99955.09;5051763;28;20044;-79
2021/11/01 18:42:19;;;;;;;9.13;2.78;;;;;;;6.59;100.00;99993.03;5027488;28;20048;-78
2021/11/01 18:53:12;;;;;;;7.18;2.67;;;;;;;6.43;100.00;99984.94;5019677;28;20050;-79
2021/11/01 18:55:38;;;;;;;6.25;2.50;;;;;;;6.40;100.00;99983.44;5031775;28;20042;-80
2021/11/01 18:58:06;;;;;;;9.13;2.50;;;;;;;6.34;100.00;99983.16;5039513;28;20053;-79
2021/11/01 19:00:43;;;;;;;11.25;2.92;;;;;;;6.29;100.00;99972.31;5034044;28;20041;-80
2021/11/01 19:03:12;;;;;;;8.63;2.40;;;;;;;6.26;100.00;99986.47;5029818;28;20083;-80
2021/11/01 19:05:44;;;;;;;9.50;3.15;;;;;;;6.23;100.00;99979.75;5027232;28;20037;-80
2021/11/01 19:14:04;;;;;;;10.20;3.30;;;;;;;6.12;100.00;99961.66;5043317;28;20037;-77
2021/11/01 19:17:29;;;;;;;8.65;2.92;;;;;;;6.07;100.00;99963.03;5038560;28;20037;-85
2021/11/01 20:04:26;;;;;;;10.60;3.50;;;;;;;5.57;100.00;99995.06;5032688;28;20483;-81
2021/11/01 20:10:08;;;;;;;7.85;3.25;;;;;;;5.50;100.00;99992.19;5019455;28;20029;-82
2021/11/01 20:12:41;;;;;;;8.82;3.65;;;;;;;5.51;100.00;99996.44;5041757;28;20059;-82
2021/11/01 21:27:22;;;;;;;7.18;2.20;;;;;;;6.69;100.00;99997.41;5034327;28;20078;-80
2021/11/01 21:29:49;;;;;;;9.32;2.40;;;;;;;6.69;100.00;99989.59;5019744;28;20040;-81
2021/11/01 21:32:14;;;;;;;6.13;2.22;;;;;;;6.65;100.00;99999.47;5034818;28;20039;-80
2021/11/01 21:34:54;;;;;;;9.05;2.65;;;;;;;6.61;100.00;100001.53;5020688;28;20037;-81
2021/11/01 21:37:20;;;;;;;5.15;2.13;;;;;;;6.57;100.00;100000.16;5052499;28;20804;-81
2021/11/01 21:39:46;;;;;;;9.73;2.10;;;;;;;6.56;100.00;100002.91;5035813;28;20565;-80
2021/11/01 21:42:11;;;;;;;4.95;1.80;;;;;;;6.50;100.00;100000.81;5036713;28;20070;-81
2021/11/01 21:44:39;;;;;;;6.20;1.77;;;;;;;6.47;100.00;99995.91;5032192;28;20055;-80
2021/11/01 21:47:05;;;;;;;9.07;1.85;;;;;;;6.45;100.00;99998.66;5034268;28;20029;-81
2021/11/01 21:49:31;;;;;;;11.68;2.20;;;;;;;6.38;100.00;99997.56;5026716;28;20051;-81
2021/11/01 21:51:57;;;;;;;9.68;2.13;;;;;;;6.32;100.00;99990.28;5018276;28;20029;-81
2021/11/01 21:56:53;;;;;;;7.80;2.00;;;;;;;6.21;100.00;99981.63;5048545;28;20047;-79
2021/11/01 21:59:41;;;;;;;7.40;2.15;;;;;;;6.19;100.00;99986.16;4994826;28;20083;-80
2021/11/01 22:09:46;;;;;;;9.38;1.95;;;;;;;6.08;100.00;99980.28;5035077;28;20044;-80
2021/11/01 22:21:33;;;;;;;6.43;2.45;;;;;;;5.90;100.00;99959.28;5037396;28;20119;-81
2021/11/01 22:34:49;;;;;;;5.95;2.60;;;;;;;5.82;100.00;99959.94;5030946;28;20067;-82
2021/11/01 22:40:13;;;;;;;11.93;2.90;;;;;;;5.98;100.00;99946.44;5032573;28;20483;-81
2021/11/01 22:59:21;;;;;;;9.48;3.22;;;;;;;5.91;100.00;99929.66;5037947;28;20049;-81
2021/11/01 23:01:49;;;;;;;8.48;2.75;;;;;;;5.84;100.00;99929.41;5051187;28;20120;-82